sensor_id;sensor_type;location;lat;lon;timestamp;temperature;humidity
15231;DHT22;32569;51.762;8.564;2022-12-18T00:01:17;-7.70;99.90
15231;DHT22;32569;51.762;8.564;2022-12-18T00:03:44;-7.70;99.90
15231;DHT22;32569;51.762;8.564;2022-12-18T00:06:11;-7.80;99.90
15231;DHT22;32569;51.762;8.564;2022-12-18T00:08:39;-7.90;99.90
15231;DHT22;32569;51.762;8.564;2022-12-18T00:11:06;-8.00;99.90
15231;DHT22;32569;51.762;8.564;2022-12-18T00:13:34;-8.20;99.90
15231;DHT22;32569;51.762;8.564;2022-12-18T00:16:02;-8.40;99.90
15231;DHT22;32569;51.762;8.564;2022-12-18T00:18:30;-8.60;99.90
15231;DHT22;32569;51.762;8.564;2022-12-18T00:20:58;-8.50;99.90
15231;DHT22;32569;51.762;8.564;2022-12-18T00:23:26;-8.30;99.90
15231;DHT22;32569;51.762;8.564;2022-12-18T00:25:52;-8.40;99.90
15231;DHT22;32569;51.762;8.564;2022-12-18T00:28:19;-8.50;99.90
15231;DHT22;32569;51.762;8.564;2022-12-18T00:30:46;-8.60;99.90
15231;DHT22;32569;51.762;8.564;2022-12-18T00:33:16;-8.60;99.90
15231;DHT22;32569;51.762;8.564;2022-12-18T00:35:51;-8.70;99.90
15231;DHT22;32569;51.762;8.564;2022-12-18T00:38:18;-8.60;99.90
15231;DHT22;32569;51.762;8.564;2022-12-18T00:40:47;-8.40;99.90
15231;DHT22;32569;51.762;8.564;2022-12-18T00:43:14;-8.50;99.90
15231;DHT22;32569;51.762;8.564;2022-12-18T00:45:40;-8.80;99.90
15231;DHT22;32569;51.762;8.564;2022-12-18T00:48:06;-8.90;99.90
15231;DHT22;32569;51.762;8.564;2022-12-18T00:50:36;-8.90;99.90
15231;DHT22;32569;51.762;8.564;2022-12-18T00:53:05;-8.90;99.90
15231;DHT22;32569;51.762;8.564;2022-12-18T00:55:32;-8.90;99.90
15231;DHT22;32569;51.762;8.564;2022-12-18T00:58:01;-8.90;99.90
15231;DHT22;32569;51.762;8.564;2022-12-18T01:00:28;-8.60;99.90
15231;DHT22;32569;51.762;8.564;2022-12-18T01:02:55;-8.30;99.90
15231;DHT22;32569;51.762;8.564;2022-12-18T01:05:24;-8.40;99.90
15231;DHT22;32569;51.762;8.564;2022-12-18T01:07:51;-8.50;99.90
15231;DHT22;32569;51.762;8.564;2022-12-18T01:10:19;-8.50;99.90
15231;DHT22;32569;51.762;8.564;2022-12-18T01:12:46;-8.40;99.90
15231;DHT22;32569;51.762;8.564;2022-12-18T01:15:16;-8.30;99.90
15231;DHT22;32569;51.762;8.564;2022-12-18T01:17:44;-8.40;99.90
15231;DHT22;32569;51.762;8.564;2022-12-18T01:20:14;-8.40;99.90
15231;DHT22;32569;51.762;8.564;2022-12-18T01:22:41;-8.50;99.90
15231;DHT22;32569;51.762;8.564;2022-12-18T01:25:08;-8.60;99.90
15231;DHT22;32569;51.762;8.564;2022-12-18T01:27:39;-8.60;99.90
15231;DHT22;32569;51.762;8.564;2022-12-18T01:30:07;-8.50;99.90
15231;DHT22;32569;51.762;8.564;2022-12-18T01:32:34;-8.50;99.90
15231;DHT22;32569;51.762;8.564;2022-12-18T01:35:00;-8.50;99.90
15231;DHT22;32569;51.762;8.564;2022-12-18T01:37:27;-8.70;99.90
15231;DHT22;32569;51.762;8.564;2022-12-18T01:39:54;-8.70;99.90
15231;DHT22;32569;51.762;8.564;2022-12-18T01:42:21;-8.70;99.90
15231;DHT22;32569;51.762;8.564;2022-12-18T01:44:59;-8.60;99.90
15231;DHT22;32569;51.762;8.564;2022-12-18T01:47:30;-8.50;99.90
15231;DHT22;32569;51.762;8.564;2022-12-18T01:50:00;-8.40;99.90
15231;DHT22;32569;51.762;8.564;2022-12-18T01:52:32;-8.30;99.90
15231;DHT22;32569;51.762;8.564;2022-12-18T01:54:59;-8.10;99.90
15231;DHT22;32569;51.762;8.564;2022-12-18T01:57:29;-8.00;99.90
15231;DHT22;32569;51.762;8.564;2022-12-18T02:00:01;-7.90;99.90
15231;DHT22;32569;51.762;8.564;2022-12-18T02:02:29;-7.90;99.90
15231;DHT22;32569;51.762;8.564;2022-12-18T02:04:58;-7.80;99.90
15231;DHT22;32569;51.762;8.564;2022-12-18T02:07:37;-7.80;99.90
15231;DHT22;32569;51.762;8.564;2022-12-18T02:10:10;-7.80;99.90
15231;DHT22;32569;51.762;8.564;2022-12-18T02:12:43;-7.90;99.90
15231;DHT22;32569;51.762;8.564;2022-12-18T02:15:16;-7.80;99.90
15231;DHT22;32569;51.762;8.564;2022-12-18T02:17:48;-7.80;99.90
15231;DHT22;32569;51.762;8.564;2022-12-18T02:20:21;-7.60;99.90
15231;DHT22;32569;51.762;8.564;2022-12-18T02:23:05;-7.50;99.90
15231;DHT22;32569;51.762;8.564;2022-12-18T02:25:54;-7.40;99.90
15231;DHT22;32569;51.762;8.564;2022-12-18T02:28:28;-7.30;99.90
15231;DHT22;32569;51.762;8.564;2022-12-18T02:30:59;-7.30;99.90
15231;DHT22;32569;51.762;8.564;2022-12-18T02:33:29;-7.30;99.90
15231;DHT22;32569;51.762;8.564;2022-12-18T02:35:57;-7.20;99.90
15231;DHT22;32569;51.762;8.564;2022-12-18T02:38:25;-7.20;99.90
15231;DHT22;32569;51.762;8.564;2022-12-18T02:40:55;-7.30;99.90
15231;DHT22;32569;51.762;8.564;2022-12-18T02:43:22;-7.40;99.90
15231;DHT22;32569;51.762;8.564;2022-12-18T02:45:54;-7.50;99.90
15231;DHT22;32569;51.762;8.564;2022-12-18T02:48:24;-7.70;99.90
15231;DHT22;32569;51.762;8.564;2022-12-18T02:50:58;-7.70;99.90
15231;DHT22;32569;51.762;8.564;2022-12-18T02:53:30;-7.70;99.90
15231;DHT22;32569;51.762;8.564;2022-12-18T02:56:05;-7.70;99.90
15231;DHT22;32569;51.762;8.564;2022-12-18T02:58:40;-7.70;99.90
15231;DHT22;32569;51.762;8.564;2022-12-18T03:01:15;-7.60;99.90
15231;DHT22;32569;51.762;8.564;2022-12-18T03:03:47;-7.50;99.90
15231;DHT22;32569;51.762;8.564;2022-12-18T03:06:21;-7.30;99.90
15231;DHT22;32569;51.762;8.564;2022-12-18T03:08:54;-7.20;99.90
15231;DHT22;32569;51.762;8.564;2022-12-18T03:11:26;-7.20;99.90
15231;DHT22;32569;51.762;8.564;2022-12-18T03:14:09;-7.20;99.90
15231;DHT22;32569;51.762;8.564;2022-12-18T03:16:38;-7.40;99.90
15231;DHT22;32569;51.762;8.564;2022-12-18T03:19:10;-7.50;99.90
15231;DHT22;32569;51.762;8.564;2022-12-18T03:21:42;-7.40;99.90
15231;DHT22;32569;51.762;8.564;2022-12-18T03:24:11;-7.50;99.90
15231;DHT22;32569;51.762;8.564;2022-12-18T03:26:42;-7.60;99.90
15231;DHT22;32569;51.762;8.564;2022-12-18T03:29:16;-7.60;99.90
15231;DHT22;32569;51.762;8.564;2022-12-18T03:31:49;-7.60;99.90
15231;DHT22;32569;51.762;8.564;2022-12-18T03:34:23;-7.50;99.90
15231;DHT22;32569;51.762;8.564;2022-12-18T03:36:53;-7.50;99.90
15231;DHT22;32569;51.762;8.564;2022-12-18T03:39:23;-7.40;99.90
15231;DHT22;32569;51.762;8.564;2022-12-18T03:41:55;-7.50;99.90
15231;DHT22;32569;51.762;8.564;2022-12-18T03:44:29;-7.40;99.90
15231;DHT22;32569;51.762;8.564;2022-12-18T03:47:01;-7.40;99.90
15231;DHT22;32569;51.762;8.564;2022-12-18T03:49:35;-7.50;99.90
15231;DHT22;32569;51.762;8.564;2022-12-18T03:52:05;-7.50;99.90
15231;DHT22;32569;51.762;8.564;2022-12-18T03:54:33;-7.60;99.90
15231;DHT22;32569;51.762;8.564;2022-12-18T03:57:06;-7.60;99.90
15231;DHT22;32569;51.762;8.564;2022-12-18T03:59:35;-7.60;99.90
15231;DHT22;32569;51.762;8.564;2022-12-18T04:02:04;-7.50;99.90
15231;DHT22;32569;51.762;8.564;2022-12-18T04:04:33;-7.40;99.90
15231;DHT22;32569;51.762;8.564;2022-12-18T04:07:01;-7.30;99.90
15231;DHT22;32569;51.762;8.564;2022-12-18T04:09:32;-7.30;99.90
15231;DHT22;32569;51.762;8.564;2022-12-18T04:12:00;-7.20;99.90
15231;DHT22;32569;51.762;8.564;2022-12-18T04:14:28;-7.20;99.90
15231;DHT22;32569;51.762;8.564;2022-12-18T04:16:58;-7.20;99.90
15231;DHT22;32569;51.762;8.564;2022-12-18T04:19:27;-7.20;99.90
15231;DHT22;32569;51.762;8.564;2022-12-18T04:21:54;-7.30;99.90
15231;DHT22;32569;51.762;8.564;2022-12-18T04:24:21;-7.30;99.90
15231;DHT22;32569;51.762;8.564;2022-12-18T04:26:51;-7.20;99.90
15231;DHT22;32569;51.762;8.564;2022-12-18T04:29:17;-7.20;99.90
15231;DHT22;32569;51.762;8.564;2022-12-18T04:31:45;-7.10;99.90
15231;DHT22;32569;51.762;8.564;2022-12-18T04:34:12;-7.00;99.90
15231;DHT22;32569;51.762;8.564;2022-12-18T04:36:39;-7.00;99.90
15231;DHT22;32569;51.762;8.564;2022-12-18T04:39:06;-6.90;99.90
15231;DHT22;32569;51.762;8.564;2022-12-18T04:41:32;-7.00;99.90
15231;DHT22;32569;51.762;8.564;2022-12-18T04:43:59;-7.10;99.90
15231;DHT22;32569;51.762;8.564;2022-12-18T04:46:26;-7.20;99.90
15231;DHT22;32569;51.762;8.564;2022-12-18T04:48:54;-7.30;99.90
15231;DHT22;32569;51.762;8.564;2022-12-18T04:51:21;-7.40;99.90
15231;DHT22;32569;51.762;8.564;2022-12-18T04:53:48;-7.50;99.90
15231;DHT22;32569;51.762;8.564;2022-12-18T04:56:15;-7.50;99.90
15231;DHT22;32569;51.762;8.564;2022-12-18T04:58:43;-7.50;99.90
15231;DHT22;32569;51.762;8.564;2022-12-18T05:01:11;-7.50;99.90
15231;DHT22;32569;51.762;8.564;2022-12-18T05:03:38;-7.50;99.90
15231;DHT22;32569;51.762;8.564;2022-12-18T05:06:07;-7.50;99.90
15231;DHT22;32569;51.762;8.564;2022-12-18T05:08:34;-7.50;99.90
15231;DHT22;32569;51.762;8.564;2022-12-18T05:11:02;-7.50;99.90
15231;DHT22;32569;51.762;8.564;2022-12-18T05:13:30;-7.40;99.90
15231;DHT22;32569;51.762;8.564;2022-12-18T05:15:57;-7.40;99.90
15231;DHT22;32569;51.762;8.564;2022-12-18T05:18:24;-7.40;99.90
15231;DHT22;32569;51.762;8.564;2022-12-18T05:20:52;-7.40;99.90
15231;DHT22;32569;51.762;8.564;2022-12-18T05:23:21;-7.20;99.90
15231;DHT22;32569;51.762;8.564;2022-12-18T05:25:50;-7.20;99.90
15231;DHT22;32569;51.762;8.564;2022-12-18T05:28:17;-7.20;99.90
15231;DHT22;32569;51.762;8.564;2022-12-18T05:30:47;-7.20;99.90
15231;DHT22;32569;51.762;8.564;2022-12-18T05:33:14;-7.10;99.90
15231;DHT22;32569;51.762;8.564;2022-12-18T05:35:41;-7.10;99.90
15231;DHT22;32569;51.762;8.564;2022-12-18T05:38:08;-7.10;99.90
15231;DHT22;32569;51.762;8.564;2022-12-18T05:40:36;-7.10;99.90
15231;DHT22;32569;51.762;8.564;2022-12-18T05:43:03;-7.20;99.90
15231;DHT22;32569;51.762;8.564;2022-12-18T05:45:31;-7.20;99.90
15231;DHT22;32569;51.762;8.564;2022-12-18T05:47:58;-7.20;99.90
15231;DHT22;32569;51.762;8.564;2022-12-18T05:50:24;-7.20;99.90
15231;DHT22;32569;51.762;8.564;2022-12-18T05:52:51;-7.30;99.90
15231;DHT22;32569;51.762;8.564;2022-12-18T05:55:18;-7.30;99.90
15231;DHT22;32569;51.762;8.564;2022-12-18T05:57:46;-7.20;99.90
15231;DHT22;32569;51.762;8.564;2022-12-18T06:00:14;-7.10;99.90
15231;DHT22;32569;51.762;8.564;2022-12-18T06:02:41;-7.00;99.90
15231;DHT22;32569;51.762;8.564;2022-12-18T06:05:08;-6.90;99.90
15231;DHT22;32569;51.762;8.564;2022-12-18T06:07:34;-6.90;99.90
15231;DHT22;32569;51.762;8.564;2022-12-18T06:10:01;-6.90;99.90
15231;DHT22;32569;51.762;8.564;2022-12-18T06:12:30;-7.00;99.90
15231;DHT22;32569;51.762;8.564;2022-12-18T06:15:00;-6.90;99.90
15231;DHT22;32569;51.762;8.564;2022-12-18T06:17:27;-6.90;99.90
15231;DHT22;32569;51.762;8.564;2022-12-18T06:19:55;-6.80;99.90
15231;DHT22;32569;51.762;8.564;2022-12-18T06:22:22;-6.60;99.90
15231;DHT22;32569;51.762;8.564;2022-12-18T06:24:49;-6.50;99.90
15231;DHT22;32569;51.762;8.564;2022-12-18T06:27:15;-6.40;99.90
15231;DHT22;32569;51.762;8.564;2022-12-18T06:29:42;-6.40;99.90
15231;DHT22;32569;51.762;8.564;2022-12-18T06:32:10;-6.40;99.90
15231;DHT22;32569;51.762;8.564;2022-12-18T06:34:38;-6.40;99.90
15231;DHT22;32569;51.762;8.564;2022-12-18T06:37:04;-6.30;99.90
15231;DHT22;32569;51.762;8.564;2022-12-18T06:39:31;-6.30;99.90
15231;DHT22;32569;51.762;8.564;2022-12-18T06:41:58;-6.30;99.90
15231;DHT22;32569;51.762;8.564;2022-12-18T06:44:25;-6.20;99.90
15231;DHT22;32569;51.762;8.564;2022-12-18T06:46:51;-6.20;99.90
15231;DHT22;32569;51.762;8.564;2022-12-18T06:49:19;-6.10;99.90
15231;DHT22;32569;51.762;8.564;2022-12-18T06:51:47;-6.10;99.90
15231;DHT22;32569;51.762;8.564;2022-12-18T06:54:14;-6.10;99.90
15231;DHT22;32569;51.762;8.564;2022-12-18T06:56:52;-6.10;99.90
15231;DHT22;32569;51.762;8.564;2022-12-18T06:59:19;-6.10;99.90
15231;DHT22;32569;51.762;8.564;2022-12-18T07:01:46;-6.10;99.90
15231;DHT22;32569;51.762;8.564;2022-12-18T07:04:12;-6.10;99.90
15231;DHT22;32569;51.762;8.564;2022-12-18T07:06:43;-6.10;99.90
15231;DHT22;32569;51.762;8.564;2022-12-18T07:09:09;-6.10;99.90
15231;DHT22;32569;51.762;8.564;2022-12-18T07:11:39;-6.10;99.90
15231;DHT22;32569;51.762;8.564;2022-12-18T07:14:06;-6.00;99.90
15231;DHT22;32569;51.762;8.564;2022-12-18T07:16:32;-6.10;99.90
15231;DHT22;32569;51.762;8.564;2022-12-18T07:18:59;-6.00;99.90
15231;DHT22;32569;51.762;8.564;2022-12-18T07:21:26;-6.00;99.90
15231;DHT22;32569;51.762;8.564;2022-12-18T07:23:54;-6.00;99.90
15231;DHT22;32569;51.762;8.564;2022-12-18T07:26:21;-6.00;99.90
15231;DHT22;32569;51.762;8.564;2022-12-18T07:28:49;-5.90;99.90
15231;DHT22;32569;51.762;8.564;2022-12-18T07:31:17;-5.80;99.90
15231;DHT22;32569;51.762;8.564;2022-12-18T07:33:45;-5.80;99.90
15231;DHT22;32569;51.762;8.564;2022-12-18T07:36:12;-5.70;99.90
15231;DHT22;32569;51.762;8.564;2022-12-18T07:38:39;-5.70;99.90
15231;DHT22;32569;51.762;8.564;2022-12-18T07:41:09;-5.70;99.90
15231;DHT22;32569;51.762;8.564;2022-12-18T07:43:38;-5.60;99.90
15231;DHT22;32569;51.762;8.564;2022-12-18T07:46:06;-5.60;99.90
15231;DHT22;32569;51.762;8.564;2022-12-18T07:48:33;-5.60;99.90
15231;DHT22;32569;51.762;8.564;2022-12-18T07:51:01;-5.50;99.90
15231;DHT22;32569;51.762;8.564;2022-12-18T07:53:28;-5.60;99.90
15231;DHT22;32569;51.762;8.564;2022-12-18T07:55:55;-5.50;99.90
15231;DHT22;32569;51.762;8.564;2022-12-18T07:58:24;-5.50;99.90
15231;DHT22;32569;51.762;8.564;2022-12-18T08:00:51;-5.40;99.90
15231;DHT22;32569;51.762;8.564;2022-12-18T08:03:18;-5.30;99.90
15231;DHT22;32569;51.762;8.564;2022-12-18T08:05:45;-5.30;99.90
15231;DHT22;32569;51.762;8.564;2022-12-18T08:08:12;-5.20;99.90
15231;DHT22;32569;51.762;8.564;2022-12-18T08:10:39;-5.20;99.90
15231;DHT22;32569;51.762;8.564;2022-12-18T08:13:06;-5.20;99.90
15231;DHT22;32569;51.762;8.564;2022-12-18T08:15:34;-5.00;99.90
15231;DHT22;32569;51.762;8.564;2022-12-18T08:18:00;-5.00;99.90
15231;DHT22;32569;51.762;8.564;2022-12-18T08:20:27;-5.00;99.90
15231;DHT22;32569;51.762;8.564;2022-12-18T08:22:54;-5.10;99.90
15231;DHT22;32569;51.762;8.564;2022-12-18T08:25:23;-5.10;99.90
15231;DHT22;32569;51.762;8.564;2022-12-18T08:27:53;-5.10;99.90
15231;DHT22;32569;51.762;8.564;2022-12-18T08:30:21;-5.10;99.90
15231;DHT22;32569;51.762;8.564;2022-12-18T08:32:52;-5.10;99.90
15231;DHT22;32569;51.762;8.564;2022-12-18T08:35:19;-5.10;99.90
15231;DHT22;32569;51.762;8.564;2022-12-18T08:37:46;-5.00;99.90
15231;DHT22;32569;51.762;8.564;2022-12-18T08:40:13;-5.00;99.90
15231;DHT22;32569;51.762;8.564;2022-12-18T08:42:39;-4.90;99.90
15231;DHT22;32569;51.762;8.564;2022-12-18T08:45:24;-4.70;99.90
15231;DHT22;32569;51.762;8.564;2022-12-18T08:47:53;-4.60;99.90
15231;DHT22;32569;51.762;8.564;2022-12-18T08:50:20;-4.50;99.90
15231;DHT22;32569;51.762;8.564;2022-12-18T08:52:46;-4.30;99.90
15231;DHT22;32569;51.762;8.564;2022-12-18T08:55:17;-4.30;99.90
15231;DHT22;32569;51.762;8.564;2022-12-18T08:57:47;-4.20;99.90
15231;DHT22;32569;51.762;8.564;2022-12-18T09:00:15;-4.20;99.90
15231;DHT22;32569;51.762;8.564;2022-12-18T09:02:45;-4.10;99.90
15231;DHT22;32569;51.762;8.564;2022-12-18T09:05:13;-4.00;99.90
15231;DHT22;32569;51.762;8.564;2022-12-18T09:07:42;-3.90;99.90
15231;DHT22;32569;51.762;8.564;2022-12-18T09:10:09;-3.80;99.90
15231;DHT22;32569;51.762;8.564;2022-12-18T09:12:36;-3.60;99.90
15231;DHT22;32569;51.762;8.564;2022-12-18T09:15:05;-3.50;99.90
15231;DHT22;32569;51.762;8.564;2022-12-18T09:17:32;-3.40;99.90
15231;DHT22;32569;51.762;8.564;2022-12-18T09:19:58;-3.40;99.90
15231;DHT22;32569;51.762;8.564;2022-12-18T09:22:26;-3.30;99.90
15231;DHT22;32569;51.762;8.564;2022-12-18T09:24:53;-3.20;99.90
15231;DHT22;32569;51.762;8.564;2022-12-18T09:27:20;-3.10;99.90
15231;DHT22;32569;51.762;8.564;2022-12-18T09:29:47;-3.00;99.90
15231;DHT22;32569;51.762;8.564;2022-12-18T09:32:14;-2.90;99.90
15231;DHT22;32569;51.762;8.564;2022-12-18T09:34:41;-2.80;99.90
15231;DHT22;32569;51.762;8.564;2022-12-18T09:37:08;-2.80;99.90
15231;DHT22;32569;51.762;8.564;2022-12-18T09:39:36;-2.80;99.90
15231;DHT22;32569;51.762;8.564;2022-12-18T09:42:03;-2.70;99.90
15231;DHT22;32569;51.762;8.564;2022-12-18T09:44:36;-2.70;99.90
15231;DHT22;32569;51.762;8.564;2022-12-18T09:47:10;-2.70;99.90
15231;DHT22;32569;51.762;8.564;2022-12-18T09:49:41;-2.60;99.90
15231;DHT22;32569;51.762;8.564;2022-12-18T09:52:13;-2.60;99.90
15231;DHT22;32569;51.762;8.564;2022-12-18T09:54:43;-2.40;99.90
15231;DHT22;32569;51.762;8.564;2022-12-18T09:57:14;-2.40;99.90
15231;DHT22;32569;51.762;8.564;2022-12-18T09:59:42;-2.40;99.90
15231;DHT22;32569;51.762;8.564;2022-12-18T10:02:16;-2.40;99.90
15231;DHT22;32569;51.762;8.564;2022-12-18T10:04:45;-2.40;99.90
15231;DHT22;32569;51.762;8.564;2022-12-18T10:07:19;-2.40;99.90
15231;DHT22;32569;51.762;8.564;2022-12-18T10:09:57;-2.40;99.90
15231;DHT22;32569;51.762;8.564;2022-12-18T10:12:32;-2.40;99.90
15231;DHT22;32569;51.762;8.564;2022-12-18T10:15:06;-2.30;99.90
15231;DHT22;32569;51.762;8.564;2022-12-18T10:17:41;-2.20;99.90
15231;DHT22;32569;51.762;8.564;2022-12-18T10:20:16;-2.10;99.90
15231;DHT22;32569;51.762;8.564;2022-12-18T10:22:52;-2.10;99.90
15231;DHT22;32569;51.762;8.564;2022-12-18T10:25:24;-2.00;99.90
15231;DHT22;32569;51.762;8.564;2022-12-18T10:27:53;-2.00;99.90
15231;DHT22;32569;51.762;8.564;2022-12-18T10:30:22;-1.80;99.90
15231;DHT22;32569;51.762;8.564;2022-12-18T10:32:49;-1.80;99.90
15231;DHT22;32569;51.762;8.564;2022-12-18T10:35:19;-1.80;99.90
15231;DHT22;32569;51.762;8.564;2022-12-18T10:38:04;-1.70;99.90
15231;DHT22;32569;51.762;8.564;2022-12-18T10:40:34;-1.70;99.90
15231;DHT22;32569;51.762;8.564;2022-12-18T10:43:14;-1.70;99.90
15231;DHT22;32569;51.762;8.564;2022-12-18T10:45:42;-1.70;99.90
15231;DHT22;32569;51.762;8.564;2022-12-18T10:48:19;-1.60;99.90
15231;DHT22;32569;51.762;8.564;2022-12-18T10:50:48;-1.60;99.90
15231;DHT22;32569;51.762;8.564;2022-12-18T10:53:20;-1.60;99.90
15231;DHT22;32569;51.762;8.564;2022-12-18T10:55:49;-1.50;99.90
15231;DHT22;32569;51.762;8.564;2022-12-18T10:58:24;-1.60;99.90
15231;DHT22;32569;51.762;8.564;2022-12-18T11:01:09;-1.60;99.90
15231;DHT22;32569;51.762;8.564;2022-12-18T11:03:38;-1.60;99.90
15231;DHT22;32569;51.762;8.564;2022-12-18T11:06:08;-1.60;99.90
15231;DHT22;32569;51.762;8.564;2022-12-18T11:08:35;-1.60;99.90
15231;DHT22;32569;51.762;8.564;2022-12-18T11:11:07;-1.50;99.90
15231;DHT22;32569;51.762;8.564;2022-12-18T11:13:51;-1.50;99.90
15231;DHT22;32569;51.762;8.564;2022-12-18T11:16:23;-1.50;99.90
15231;DHT22;32569;51.762;8.564;2022-12-18T11:18:50;-1.40;99.90
15231;DHT22;32569;51.762;8.564;2022-12-18T11:21:17;-1.40;99.90
15231;DHT22;32569;51.762;8.564;2022-12-18T11:23:47;-1.40;99.90
15231;DHT22;32569;51.762;8.564;2022-12-18T11:26:17;-1.40;99.90
15231;DHT22;32569;51.762;8.564;2022-12-18T11:28:46;-1.30;99.90
15231;DHT22;32569;51.762;8.564;2022-12-18T11:31:22;-1.30;99.90
15231;DHT22;32569;51.762;8.564;2022-12-18T11:33:58;-1.20;99.90
15231;DHT22;32569;51.762;8.564;2022-12-18T11:36:29;-1.10;99.90
15231;DHT22;32569;51.762;8.564;2022-12-18T11:39:00;-1.10;99.90
15231;DHT22;32569;51.762;8.564;2022-12-18T11:41:32;-1.10;99.90
15231;DHT22;32569;51.762;8.564;2022-12-18T11:44:22;-1.00;99.90
15231;DHT22;32569;51.762;8.564;2022-12-18T11:46:55;-0.90;99.90
15231;DHT22;32569;51.762;8.564;2022-12-18T11:49:26;-1.00;99.90
15231;DHT22;32569;51.762;8.564;2022-12-18T11:52:00;-0.90;99.90
15231;DHT22;32569;51.762;8.564;2022-12-18T11:54:28;-0.80;99.90
15231;DHT22;32569;51.762;8.564;2022-12-18T11:57:03;-0.80;99.90
15231;DHT22;32569;51.762;8.564;2022-12-18T11:59:35;-0.80;99.90
15231;DHT22;32569;51.762;8.564;2022-12-18T12:02:20;-0.80;99.90
15231;DHT22;32569;51.762;8.564;2022-12-18T12:05:12;-0.80;99.90
15231;DHT22;32569;51.762;8.564;2022-12-18T12:07:46;-0.70;99.90
15231;DHT22;32569;51.762;8.564;2022-12-18T12:10:30;-0.70;99.80
15231;DHT22;32569;51.762;8.564;2022-12-18T12:13:19;-0.60;99.70
15231;DHT22;32569;51.762;8.564;2022-12-18T12:16:04;-0.60;99.60
15231;DHT22;32569;51.762;8.564;2022-12-18T12:18:56;-0.50;99.50
15231;DHT22;32569;51.762;8.564;2022-12-18T12:21:31;-0.50;99.30
15231;DHT22;32569;51.762;8.564;2022-12-18T12:24:11;-0.40;98.80
15231;DHT22;32569;51.762;8.564;2022-12-18T12:26:49;-0.30;98.80
15231;DHT22;32569;51.762;8.564;2022-12-18T12:29:29;-0.30;98.70
15231;DHT22;32569;51.762;8.564;2022-12-18T12:32:07;-0.20;98.50
15231;DHT22;32569;51.762;8.564;2022-12-18T12:34:47;-0.20;98.10
15231;DHT22;32569;51.762;8.564;2022-12-18T12:37:26;-0.20;98.30
15231;DHT22;32569;51.762;8.564;2022-12-18T12:40:00;-0.10;98.00
15231;DHT22;32569;51.762;8.564;2022-12-18T12:42:31;-0.10;98.10
15231;DHT22;32569;51.762;8.564;2022-12-18T12:45:22;-0.10;98.10
15231;DHT22;32569;51.762;8.564;2022-12-18T12:47:51;-0.10;97.60
15231;DHT22;32569;51.762;8.564;2022-12-18T12:50:21;-0.10;97.80
15231;DHT22;32569;51.762;8.564;2022-12-18T12:52:50;0.00;97.60
15231;DHT22;32569;51.762;8.564;2022-12-18T12:55:21;0.00;97.30
15231;DHT22;32569;51.762;8.564;2022-12-18T12:57:58;0.00;97.50
15231;DHT22;32569;51.762;8.564;2022-12-18T13:00:31;0.00;97.50
15231;DHT22;32569;51.762;8.564;2022-12-18T13:03:03;0.00;97.40
15231;DHT22;32569;51.762;8.564;2022-12-18T13:05:38;0.00;97.30
15231;DHT22;32569;51.762;8.564;2022-12-18T13:08:08;0.00;97.30
15231;DHT22;32569;51.762;8.564;2022-12-18T13:10:37;0.00;97.20
15231;DHT22;32569;51.762;8.564;2022-12-18T13:13:06;0.00;97.20
15231;DHT22;32569;51.762;8.564;2022-12-18T13:15:38;0.00;97.30
15231;DHT22;32569;51.762;8.564;2022-12-18T13:18:17;-0.10;97.60
15231;DHT22;32569;51.762;8.564;2022-12-18T13:20:45;-0.10;97.40
15231;DHT22;32569;51.762;8.564;2022-12-18T13:23:31;-0.10;97.30
15231;DHT22;32569;51.762;8.564;2022-12-18T13:26:27;-0.10;97.20
15231;DHT22;32569;51.762;8.564;2022-12-18T13:28:53;-0.10;97.20
15231;DHT22;32569;51.762;8.564;2022-12-18T13:34:33;0.00;96.90
15231;DHT22;32569;51.762;8.564;2022-12-18T13:43:29;0.00;96.90
15231;DHT22;32569;51.762;8.564;2022-12-18T13:46:04;0.00;96.90
15231;DHT22;32569;51.762;8.564;2022-12-18T13:48:33;0.00;96.30
15231;DHT22;32569;51.762;8.564;2022-12-18T13:51:04;0.00;96.40
15231;DHT22;32569;51.762;8.564;2022-12-18T13:53:35;0.10;96.30
15231;DHT22;32569;51.762;8.564;2022-12-18T13:56:04;0.00;96.70
15231;DHT22;32569;51.762;8.564;2022-12-18T13:58:31;0.00;96.50
15231;DHT22;32569;51.762;8.564;2022-12-18T14:00:58;0.10;96.20
15231;DHT22;32569;51.762;8.564;2022-12-18T14:03:31;0.10;96.40
15231;DHT22;32569;51.762;8.564;2022-12-18T14:06:02;0.10;96.40
15231;DHT22;32569;51.762;8.564;2022-12-18T14:08:37;0.10;96.30
15231;DHT22;32569;51.762;8.564;2022-12-18T14:11:06;0.10;96.30
15231;DHT22;32569;51.762;8.564;2022-12-18T14:13:36;0.10;96.50
15231;DHT22;32569;51.762;8.564;2022-12-18T14:16:05;0.10;96.30
15231;DHT22;32569;51.762;8.564;2022-12-18T14:18:41;0.10;96.50
15231;DHT22;32569;51.762;8.564;2022-12-18T14:21:18;0.00;96.60
15231;DHT22;32569;51.762;8.564;2022-12-18T14:23:46;0.00;96.70
15231;DHT22;32569;51.762;8.564;2022-12-18T14:26:24;-0.10;96.70
15231;DHT22;32569;51.762;8.564;2022-12-18T14:28:52;-0.10;96.80
15231;DHT22;32569;51.762;8.564;2022-12-18T14:31:22;-0.10;96.80
15231;DHT22;32569;51.762;8.564;2022-12-18T14:33:51;-0.10;97.00
15231;DHT22;32569;51.762;8.564;2022-12-18T14:36:19;-0.10;97.10
15231;DHT22;32569;51.762;8.564;2022-12-18T14:38:49;-0.20;97.20
15231;DHT22;32569;51.762;8.564;2022-12-18T14:41:18;-0.20;97.20
15231;DHT22;32569;51.762;8.564;2022-12-18T14:43:46;-0.30;97.30
15231;DHT22;32569;51.762;8.564;2022-12-18T14:46:29;-0.30;97.40
15231;DHT22;32569;51.762;8.564;2022-12-18T14:48:58;-0.30;97.50
15231;DHT22;32569;51.762;8.564;2022-12-18T14:51:26;-0.30;97.50
15231;DHT22;32569;51.762;8.564;2022-12-18T14:53:55;-0.40;97.70
15231;DHT22;32569;51.762;8.564;2022-12-18T14:56:24;-0.40;97.90
15231;DHT22;32569;51.762;8.564;2022-12-18T14:58:53;-0.50;98.10
15231;DHT22;32569;51.762;8.564;2022-12-18T15:01:25;-0.40;98.00
15231;DHT22;32569;51.762;8.564;2022-12-18T15:03:53;-0.50;98.10
15231;DHT22;32569;51.762;8.564;2022-12-18T15:06:38;-0.50;98.00
15231;DHT22;32569;51.762;8.564;2022-12-18T15:09:20;-0.50;97.90
15231;DHT22;32569;51.762;8.564;2022-12-18T15:11:47;-0.50;97.60
15231;DHT22;32569;51.762;8.564;2022-12-18T15:14:33;-0.50;97.70
15231;DHT22;32569;51.762;8.564;2022-12-18T15:17:03;-0.50;97.60
15231;DHT22;32569;51.762;8.564;2022-12-18T15:19:37;-0.60;97.60
15231;DHT22;32569;51.762;8.564;2022-12-18T15:22:21;-0.50;97.50
15231;DHT22;32569;51.762;8.564;2022-12-18T15:24:48;-0.50;97.60
15231;DHT22;32569;51.762;8.564;2022-12-18T15:27:21;-0.50;97.40
15231;DHT22;32569;51.762;8.564;2022-12-18T15:32:41;-0.50;97.50
15231;DHT22;32569;51.762;8.564;2022-12-18T15:35:14;-0.60;97.30
15231;DHT22;32569;51.762;8.564;2022-12-18T15:37:43;-0.50;97.40
15231;DHT22;32569;51.762;8.564;2022-12-18T15:40:13;-0.50;97.30
15231;DHT22;32569;51.762;8.564;2022-12-18T15:42:40;-0.60;97.70
15231;DHT22;32569;51.762;8.564;2022-12-18T15:45:24;-0.60;97.40
15231;DHT22;32569;51.762;8.564;2022-12-18T15:47:51;-0.60;97.30
15231;DHT22;32569;51.762;8.564;2022-12-18T15:50:17;-0.60;97.40
15231;DHT22;32569;51.762;8.564;2022-12-18T15:52:48;-0.60;97.20
15231;DHT22;32569;51.762;8.564;2022-12-18T15:55:17;-0.60;97.30
15231;DHT22;32569;51.762;8.564;2022-12-18T15:58:03;-0.60;97.20
15231;DHT22;32569;51.762;8.564;2022-12-18T16:00:30;-0.70;97.30
15231;DHT22;32569;51.762;8.564;2022-12-18T16:02:56;-0.70;97.40
15231;DHT22;32569;51.762;8.564;2022-12-18T16:05:27;-0.70;97.40